Time;durP1;ratioP1;P1;durP2;ratioP2;P2;SDS_P1;SDS_P2;PMS_P1;PMS_P2;Temp;Humidity;BMP_temperature;BMP_pressure;BME280_temperature;BME280_humidity;BME280_pressure;Samples;Min_cycle;Max_cycle;Signal;HPM_P1;HPM_P2
2022/11/10 00:04:52;;;;;;;5.50;1.43;;;;;;;11.82;83.30;100733.66;4929667;28;20050;-65
2022/11/10 00:07:24;;;;;;;7.45;1.50;;;;;;;11.82;82.28;100736.31;4930494;28;20058;-65
2022/11/10 00:18:29;;;;;;;6.63;1.27;;;;;;;11.94;81.10;100740.00;4946283;23;20514;-76
2022/11/10 00:25:22;;;;;;;5.13;1.77;;;;;;;11.90;82.04;100750.75;4933325;28;20145;-76
2022/11/10 00:27:50;;;;;;;3.75;1.02;;;;;;;11.88;81.97;100752.63;4921915;28;20098;-78
2022/11/10 00:30:17;;;;;;;6.85;1.75;;;;;;;11.87;81.79;100761.47;4940157;28;20036;-76
2022/11/10 00:32:47;;;;;;;6.05;1.80;;;;;;;12.02;81.93;100753.53;4928072;28;20044;-76
2022/11/10 00:35:14;;;;;;;7.53;1.65;;;;;;;12.06;80.78;100755.88;4923828;28;20062;-76
2022/11/10 00:37:42;;;;;;;3.38;1.63;;;;;;;12.03;80.80;100766.66;4926984;28;20107;-75
2022/11/10 00:40:09;;;;;;;9.68;1.50;;;;;;;12.06;80.69;100765.59;4925070;29;20055;-77
2022/11/10 00:42:37;;;;;;;7.00;1.60;;;;;;;12.05;80.56;100763.91;4923421;28;20092;-75
2022/11/10 00:45:05;;;;;;;4.95;1.30;;;;;;;12.01;80.90;100757.97;4924370;28;20662;-76
2022/11/10 00:47:35;;;;;;;4.25;1.25;;;;;;;12.00;81.34;100760.72;4899857;28;20076;-76
2022/11/10 00:50:04;;;;;;;4.93;1.30;;;;;;;12.03;80.93;100765.81;4912847;28;20051;-76
2022/11/10 00:52:32;;;;;;;3.25;1.55;;;;;;;12.02;81.06;100774.66;4914946;28;20040;-76
2022/11/10 00:54:59;;;;;;;6.35;1.27;;;;;;;12.02;80.77;100772.00;4934961;28;20055;-76
2022/11/10 00:57:27;;;;;;;5.45;1.13;;;;;;;11.98;80.69;100776.66;4923884;28;20101;-76
2022/11/10 00:59:54;;;;;;;7.68;2.03;;;;;;;12.16;80.09;100766.75;4924281;28;20618;-76
2022/11/10 01:02:22;;;;;;;8.45;1.50;;;;;;;12.18;80.01;100774.56;4921117;28;20101;-75
2022/11/10 01:04:49;;;;;;;9.68;1.67;;;;;;;12.19;79.18;100777.09;4918329;28;20056;-76
2022/11/10 01:07:17;;;;;;;6.72;1.63;;;;;;;12.08;79.75;100777.78;4924274;29;20095;-76
2022/11/10 01:09:44;;;;;;;4.50;1.30;;;;;;;12.06;79.81;100782.28;4927744;29;20042;-76
2022/11/10 01:12:15;;;;;;;4.45;1.45;;;;;;;12.06;79.93;100769.09;4921721;28;20040;-76
2022/11/10 01:14:42;;;;;;;7.07;1.48;;;;;;;12.11;79.38;100780.22;4925216;28;20051;-75
2022/11/10 01:17:09;;;;;;;5.75;1.83;;;;;;;12.10;78.96;100775.88;4942117;28;20546;-76
2022/11/10 01:19:37;;;;;;;4.53;1.40;;;;;;;12.13;79.12;100793.31;4926955;28;20119;-76
2022/11/10 01:22:04;;;;;;;6.57;1.40;;;;;;;12.12;79.35;100789.84;4920273;28;20052;-77
2022/11/10 01:24:32;;;;;;;8.93;1.77;;;;;;;12.23;78.02;100798.84;4941874;28;20052;-76
2022/11/10 01:26:59;;;;;;;5.05;1.23;;;;;;;12.14;78.51;100790.56;4934022;29;20064;-77
2022/11/10 01:29:27;;;;;;;6.43;1.20;;;;;;;12.09;78.93;100787.38;4920506;28;20059;-76
2022/11/10 01:31:54;;;;;;;5.65;1.65;;;;;;;12.06;78.85;100794.63;4917283;28;20191;-77
2022/11/10 01:34:22;;;;;;;7.05;1.50;;;;;;;12.03;79.00;100793.03;4933409;28;20060;-76
2022/11/10 01:36:50;;;;;;;5.85;1.38;;;;;;;12.06;78.72;100798.09;4929404;28;20105;-75
2022/11/10 01:43:45;;;;;;;7.72;1.65;;;;;;;12.08;78.85;100811.22;4924211;28;20039;-76
2022/11/10 01:46:13;;;;;;;5.60;1.88;;;;;;;12.09;79.33;100811.13;4921348;29;20575;-75
2022/11/10 01:48:48;;;;;;;6.07;1.42;;;;;;;12.08;78.36;100820.00;4914868;29;20059;-76
2022/11/10 02:34:15;;;;;;;9.57;2.85;;;;;;;11.87;80.52;100860.88;4925350;28;20054;-76
2022/11/10 02:54:40;;;;;;;3.25;1.10;;;;;;;11.83;80.34;100875.19;4922572;28;20102;-75
2022/11/10 02:57:08;;;;;;;5.30;2.00;;;;;;;11.81;80.58;100880.53;4946587;28;20052;-75
2022/11/10 03:30:23;;;;;;;5.65;1.55;;;;;;;11.84;79.93;100937.53;4920260;28;20130;-75
2022/11/10 04:03:04;;;;;;;12.03;2.53;;;;;;;11.61;81.29;100971.34;4915891;28;20594;-76
2022/11/10 04:40:55;;;;;;;14.05;2.22;;;;;;;11.30;82.62;101025.00;4922738;29;20055;-75
2022/11/10 04:43:23;;;;;;;7.60;2.38;;;;;;;11.24;82.80;101020.03;4907238;29;20056;-77
2022/11/10 04:45:51;;;;;;;9.82;1.75;;;;;;;11.19;83.54;101026.50;4922664;28;20051;-77
2022/11/10 04:52:38;;;;;;;6.22;2.00;;;;;;;11.17;83.39;101029.25;4924241;29;20046;-77
2022/11/10 04:55:06;;;;;;;6.55;2.33;;;;;;;11.14;83.59;101029.41;4944032;28;20088;-76
2022/11/10 04:57:34;;;;;;;12.40;2.63;;;;;;;11.06;83.99;101031.59;4910632;28;20044;-77
2022/11/10 05:00:02;;;;;;;9.77;2.25;;;;;;;11.02;84.56;101035.34;4921655;28;20138;-77
2022/11/10 06:27:46;;;;;;;13.00;2.60;;;;;;;10.48;89.26;101195.25;4922480;28;20205;-76
2022/11/10 06:30:14;;;;;;;7.80;2.25;;;;;;;10.45;89.29;101198.06;4923316;28;20071;-77
2022/11/10 06:45:50;;;;;;;10.43;2.20;;;;;;;10.36;90.27;101237.06;4929801;28;20063;-75
2022/11/10 06:48:18;;;;;;;12.75;2.65;;;;;;;10.41;90.13;101241.25;4921768;28;20602;-76
2022/11/10 06:51:02;;;;;;;11.55;2.35;;;;;;;10.36;90.50;101250.22;4923038;28;20625;-76
2022/11/10 06:53:33;;;;;;;10.95;2.65;;;;;;;10.34;90.70;101259.94;4938939;28;20048;-77
2022/11/10 06:56:07;;;;;;;8.35;3.22;;;;;;;10.35;90.67;101272.19;4947599;28;20059;-75
2022/11/10 06:58:39;;;;;;;13.05;3.10;;;;;;;10.34;91.01;101275.75;4946914;28;20046;-76
2022/11/10 07:01:11;;;;;;;14.20;3.20;;;;;;;10.43;90.40;101269.19;4929241;28;20063;-75
2022/11/10 07:03:47;;;;;;;11.48;2.88;;;;;;;10.38;90.97;101279.94;4948216;28;20649;-75
2022/11/10 07:06:38;;;;;;;14.15;3.45;;;;;;;10.38;91.20;101287.84;4921501;28;20139;-76
2022/11/10 07:09:10;;;;;;;10.90;3.10;;;;;;;10.45;90.87;101296.31;4923791;28;20891;-76
2022/11/10 07:11:40;;;;;;;13.13;2.97;;;;;;;10.47;90.70;101304.13;4925591;28;20491;-76
2022/11/10 07:14:11;;;;;;;15.18;2.72;;;;;;;10.47;90.63;101310.25;4919626;28;20056;-76
2022/11/10 07:16:40;;;;;;;11.02;3.28;;;;;;;10.53;90.51;101312.56;4940687;28;20046;-76
2022/11/10 07:19:09;;;;;;;7.72;2.85;;;;;;;10.51;90.96;101324.13;4930977;28;20050;-76
2022/11/10 07:21:43;;;;;;;11.40;3.92;;;;;;;10.52;91.01;101321.41;4941607;28;20079;-75
2022/11/10 07:24:16;;;;;;;10.05;2.70;;;;;;;10.51;91.06;101330.22;4927976;28;20060;-75
2022/11/10 07:26:49;;;;;;;12.95;2.75;;;;;;;10.56;90.77;101328.22;4928814;28;20056;-76
2022/11/10 07:29:18;;;;;;;12.35;3.10;;;;;;;10.59;90.41;101327.25;4936468;28;20051;-76
2022/11/10 07:31:47;;;;;;;10.50;3.45;;;;;;;10.59;90.37;101328.09;4968468;28;20132;-76
2022/11/10 07:34:16;;;;;;;14.40;3.20;;;;;;;10.60;90.33;101334.22;4928256;28;20150;-76
2022/11/10 07:36:45;;;;;;;13.75;3.20;;;;;;;10.58;90.99;101346.56;4957788;28;20885;-76
2022/11/10 07:39:14;;;;;;;10.38;2.88;;;;;;;10.58;91.08;101349.22;4931801;28;20063;-74
2022/11/10 07:41:45;;;;;;;17.08;3.33;;;;;;;10.60;91.09;101352.63;4935252;28;20589;-74
2022/11/10 07:44:21;;;;;;;11.23;3.35;;;;;;;10.61;90.81;101352.56;4910042;28;20088;-74
2022/11/10 07:46:53;;;;;;;12.50;2.80;;;;;;;10.64;90.73;101360.31;4910937;28;20055;-75
2022/11/10 07:49:23;;;;;;;10.48;2.58;;;;;;;10.67;90.05;101364.56;4935147;28;20052;-74
2022/11/10 07:52:01;;;;;;;23.45;4.57;;;;;;;10.66;90.26;101376.03;4923532;28;20560;-74
2022/11/10 07:54:36;;;;;;;14.32;3.20;;;;;;;10.67;90.49;101368.97;4917769;28;20059;-74
2022/11/10 07:57:06;;;;;;;17.35;3.03;;;;;;;10.73;90.49;101376.63;4926657;28;20048;-74
2022/11/10 07:59:40;;;;;;;12.25;2.97;;;;;;;10.77;89.95;101384.28;4914510;28;20079;-74
2022/11/10 08:02:12;;;;;;;10.68;3.55;;;;;;;10.78;89.78;101386.00;4939457;28;20059;-74
2022/11/10 08:04:44;;;;;;;13.43;3.47;;;;;;;10.80;89.75;101380.66;4930701;28;20628;-74
2022/11/10 08:07:16;;;;;;;10.80;3.13;;;;;;;10.81;89.97;101385.00;4933672;28;20143;-74
2022/11/10 08:09:46;;;;;;;9.55;3.17;;;;;;;10.86;89.81;101389.13;4915605;28;20048;-75
2022/11/10 08:12:14;;;;;;;17.20;3.78;;;;;;;10.91;89.20;101394.16;4985382;28;20174;-75
2022/11/10 08:14:42;;;;;;;12.38;3.17;;;;;;;10.94;89.05;101396.63;4944484;28;20494;-74
2022/11/10 08:17:11;;;;;;;15.50;3.22;;;;;;;10.96;89.15;101393.94;4935491;28;20071;-74
2022/11/10 08:19:41;;;;;;;18.70;3.15;;;;;;;10.97;89.24;101408.81;4938390;28;20147;-75
2022/11/10 08:22:13;;;;;;;10.02;2.90;;;;;;;10.99;88.98;101410.47;4925866;28;20047;-74
2022/11/10 08:24:46;;;;;;;12.18;2.63;;;;;;;11.06;88.66;101406.59;4937963;28;20050;-74
2022/11/10 08:27:18;;;;;;;10.55;2.70;;;;;;;11.12;88.37;101397.53;4932808;28;20056;-74
2022/11/10 08:29:52;;;;;;;15.10;4.40;;;;;;;11.21;87.85;101407.63;4939391;28;20047;-74
2022/11/10 08:32:25;;;;;;;12.60;3.85;;;;;;;11.22;88.20;101404.06;4918559;28;20381;-75
2022/11/10 08:34:56;;;;;;;15.88;3.05;;;;;;;11.19;88.20;101401.59;4945651;28;20058;-74
2022/11/10 08:37:29;;;;;;;13.52;3.47;;;;;;;11.23;88.33;101405.78;4929669;28;20052;-74
2022/11/10 08:40:03;;;;;;;13.75;3.75;;;;;;;11.31;87.92;101421.22;4943337;28;20102;-75
2022/11/10 08:42:35;;;;;;;12.80;2.83;;;;;;;11.33;87.47;101424.63;4927907;28;20154;-74
2022/11/10 08:45:09;;;;;;;17.80;4.10;;;;;;;11.43;87.28;101425.88;4938446;28;20074;-73
2022/11/10 08:47:43;;;;;;;;;;;;;;;11.41;87.08;101433.88;4961730;28;20081;-75
2022/11/10 08:50:16;;;;;;;15.65;2.88;;;;;;;11.46;87.32;101431.00;4939101;28;21514;-75
2022/11/10 08:52:48;;;;;;;11.18;3.03;;;;;;;11.51;87.16;101438.69;4927292;28;20056;-75
2022/11/10 08:55:24;;;;;;;12.65;3.38;;;;;;;11.55;86.24;101449.00;4925105;28;20048;-75
2022/11/10 08:58:02;;;;;;;14.02;2.88;;;;;;;11.52;86.66;101459.69;4941061;28;20052;-75
2022/11/10 09:00:38;;;;;;;12.18;3.85;;;;;;;11.58;86.04;101456.75;4990071;28;20074;-75
2022/11/10 09:03:19;;;;;;;10.65;3.22;;;;;;;11.60;86.25;101460.16;4918319;28;20035;-74
2022/11/10 09:05:53;;;;;;;17.17;3.40;;;;;;;11.67;86.17;101473.91;4962091;28;20059;-75
2022/11/10 09:08:32;;;;;;;10.65;3.20;;;;;;;11.71;85.73;101485.13;4934258;28;20516;-75
2022/11/10 09:11:04;;;;;;;14.02;3.22;;;;;;;11.71;85.89;101479.88;4922216;28;20063;-75
2022/11/10 09:13:36;;;;;;;17.85;3.30;;;;;;;11.75;85.84;101481.44;4947030;28;20524;-75
2022/11/10 09:16:09;;;;;;;15.70;3.63;;;;;;;11.79;85.94;101482.97;4989048;28;20050;-76
2022/11/10 09:18:38;;;;;;;12.40;3.30;;;;;;;11.83;85.54;101498.63;4924211;28;20141;-75
2022/11/10 09:21:10;;;;;;;16.08;4.32;;;;;;;11.80;85.25;101498.75;4933159;28;20047;-76
2022/11/10 09:23:41;;;;;;;15.13;3.67;;;;;;;11.84;84.99;101499.47;4936777;28;20052;-75
2022/11/10 09:26:11;;;;;;;16.27;3.30;;;;;;;11.85;85.65;101502.03;4964089;28;20048;-76
2022/11/10 09:28:42;;;;;;;14.38;4.40;;;;;;;11.93;84.96;101501.63;4920466;28;20047;-75
2022/11/10 09:31:12;;;;;;;13.35;3.20;;;;;;;11.88;84.74;101495.75;4925609;28;20530;-76
2022/11/10 09:33:43;;;;;;;17.30;3.33;;;;;;;11.90;84.51;101515.00;4991433;28;20049;-75
2022/11/10 09:36:15;;;;;;;11.35;4.00;;;;;;;11.80;85.07;101500.53;4946264;28;20055;-75
2022/11/10 09:38:48;;;;;;;14.65;3.50;;;;;;;11.83;85.17;101509.16;4923575;28;20066;-76
2022/11/10 09:41:19;;;;;;;10.40;3.17;;;;;;;11.88;85.12;101516.84;4936464;28;20048;-76
2022/11/10 09:44:00;;;;;;;10.40;2.88;;;;;;;12.01;84.69;101514.44;4932888;28;20078;-75
2022/11/10 09:46:44;;;;;;;21.27;4.75;;;;;;;12.09;83.98;101518.41;4960313;28;20056;-75
2022/11/10 09:49:18;;;;;;;16.02;3.00;;;;;;;12.12;83.94;101526.19;4953131;28;20072;-76
2022/11/10 09:51:48;;;;;;;15.40;2.90;;;;;;;12.22;82.85;101526.56;4931890;28;20587;-74
2022/11/10 09:54:25;;;;;;;11.50;2.92;;;;;;;12.14;83.58;101524.31;4925717;28;20148;-75
2022/11/10 09:56:59;;;;;;;8.52;3.75;;;;;;;12.10;83.83;101517.47;4931431;28;20079;-75
2022/11/10 09:59:31;;;;;;;15.07;2.90;;;;;;;12.22;83.73;101523.06;4947348;28;20419;-75
2022/11/10 10:02:17;;;;;;;17.50;3.42;;;;;;;12.29;82.90;101522.69;4934866;28;20110;-75
2022/11/10 10:05:08;;;;;;;14.18;3.53;;;;;;;12.54;82.00;101522.25;4961481;28;20054;-74
2022/11/10 10:08:09;;;;;;;16.75;3.35;;;;;;;12.56;82.53;101512.47;4941974;28;20044;-76
2022/11/10 10:10:44;;;;;;;12.32;3.05;;;;;;;12.63;81.68;101529.69;4950864;28;20102;-74
2022/11/10 10:13:54;;;;;;;15.88;2.97;;;;;;;12.67;80.85;101519.81;4938575;28;20135;-75
2022/11/10 10:16:36;;;;;;;17.83;3.10;;;;;;;12.70;81.01;101526.69;4906028;28;20058;-75
2022/11/10 10:19:19;;;;;;;11.90;2.88;;;;;;;12.70;81.15;101522.28;4926726;28;20483;-75
2022/11/10 10:22:07;;;;;;;21.95;3.60;;;;;;;12.70;80.45;101529.34;4933182;28;20044;-74
2022/11/10 10:24:37;;;;;;;14.23;3.53;;;;;;;12.63;80.47;101534.97;4932076;28;20044;-75
2022/11/10 10:27:19;;;;;;;16.45;3.30;;;;;;;12.56;81.17;101532.72;4928017;28;20055;-75
2022/11/10 10:29:48;;;;;;;14.63;4.20;;;;;;;12.51;80.94;101532.97;4944905;28;20491;-75
2022/11/10 10:32:18;;;;;;;12.63;3.50;;;;;;;12.55;81.03;101534.50;4935092;28;20094;-75
2022/11/10 10:34:47;;;;;;;12.23;3.88;;;;;;;12.63;81.41;101528.81;4950063;28;20059;-75
2022/11/10 10:38:04;;;;;;;17.95;3.72;;;;;;;12.64;80.09;101533.16;4923003;28;20180;-75
2022/11/10 10:40:35;;;;;;;9.10;2.90;;;;;;;12.68;80.19;101534.72;4925498;28;20043;-74
2022/11/10 10:43:09;;;;;;;9.55;2.90;;;;;;;12.75;79.99;101551.97;4926323;28;20475;-75
2022/11/10 10:45:41;;;;;;;14.90;3.33;;;;;;;12.86;79.39;101544.28;4910088;28;20753;-75
2022/11/10 10:48:25;;;;;;;9.35;3.22;;;;;;;12.87;78.86;101545.16;4944797;28;20044;-75
2022/11/10 10:50:54;;;;;;;9.13;2.45;;;;;;;12.82;79.06;101541.91;4936151;28;20155;-75
2022/11/10 10:53:26;;;;;;;13.68;2.88;;;;;;;12.99;79.62;101552.44;4934748;28;20056;-75
2022/11/10 10:56:04;;;;;;;11.40;3.17;;;;;;;13.01;78.84;101550.53;4922026;28;21127;-75
2022/11/10 10:58:57;;;;;;;11.73;2.70;;;;;;;13.01;78.71;101561.09;4941137;28;20058;-74
2022/11/10 11:01:33;;;;;;;15.20;3.40;;;;;;;12.85;78.77;101558.44;4916557;28;20046;-75
2022/11/10 11:04:25;;;;;;;10.02;2.83;;;;;;;12.86;79.43;101552.22;4905828;28;20102;-75
2022/11/10 11:07:00;;;;;;;8.90;3.22;;;;;;;12.93;79.36;101556.25;4926763;28;20059;-75
2022/11/10 11:09:49;;;;;;;10.15;2.40;;;;;;;12.97;79.33;101558.72;4935882;28;20048;-77
2022/11/10 11:12:20;;;;;;;14.88;2.55;;;;;;;13.00;79.03;101550.63;4938878;28;20945;-74
2022/11/10 11:14:49;;;;;;;14.20;3.33;;;;;;;13.00;79.37;101555.91;4930028;28;20435;-75
2022/11/10 11:17:21;;;;;;;21.48;4.05;;;;;;;13.32;77.99;101556.81;4926421;28;20079;-75
2022/11/10 11:19:54;;;;;;;14.48;3.10;;;;;;;13.67;76.58;101547.75;4929761;28;20131;-75
2022/11/10 11:22:56;;;;;;;9.10;2.88;;;;;;;13.74;75.83;101544.78;4937781;28;20058;-75
2022/11/10 11:25:48;;;;;;;11.25;2.63;;;;;;;13.66;76.12;101537.28;4926989;28;20051;-75
2022/11/10 11:28:31;;;;;;;10.68;2.58;;;;;;;13.61;76.50;101569.28;4909389;28;20052;-75
2022/11/10 11:31:16;;;;;;;14.90;3.63;;;;;;;13.67;76.05;101558.34;4936705;28;20086;-75
2022/11/10 11:33:55;;;;;;;19.27;3.47;;;;;;;13.66;75.49;101563.72;4928082;28;20056;-74
2022/11/10 11:36:53;;;;;;;15.85;3.22;;;;;;;13.65;75.65;101562.88;4919608;28;20139;-75
2022/11/10 11:39:39;;;;;;;14.15;3.80;;;;;;;13.62;76.18;101564.84;4920196;28;20524;-75
2022/11/10 11:42:46;;;;;;;11.55;3.17;;;;;;;13.76;76.05;101567.56;4924225;28;20044;-74
2022/11/10 11:45:20;;;;;;;13.85;3.25;;;;;;;14.15;74.47;101553.78;4901041;28;20487;-75
2022/11/10 11:47:56;;;;;;;12.38;3.10;;;;;;;14.29;74.47;101558.28;4941043;28;20063;-74
2022/11/10 11:50:36;;;;;;;13.93;3.72;;;;;;;14.48;72.45;101566.00;4923794;28;20524;-74
2022/11/10 11:53:14;;;;;;;15.68;3.10;;;;;;;14.33;72.30;101562.44;4923938;28;20126;-75
2022/11/10 11:56:06;;;;;;;14.13;2.97;;;;;;;14.38;72.85;101570.13;4922747;28;20084;-75
2022/11/10 11:58:52;;;;;;;11.68;2.28;;;;;;;14.81;70.62;101549.81;4933801;28;20048;-75
2022/11/10 12:01:22;;;;;;;14.18;3.35;;;;;;;14.77;69.40;101558.94;4919309;28;20062;-75
2022/11/10 12:03:51;;;;;;;11.73;3.20;;;;;;;14.67;69.10;101571.88;4919952;28;20048;-75
2022/11/10 12:06:58;;;;;;;12.18;3.00;;;;;;;14.44;70.53;101567.94;4924246;28;20059;-75
2022/11/10 12:09:45;;;;;;;8.50;3.00;;;;;;;14.62;70.49;101557.22;4991656;28;20151;-74
2022/11/10 12:12:54;;;;;;;13.88;2.83;;;;;;;14.53;71.28;101550.66;4942785;28;20113;-74
2022/11/10 12:15:27;;;;;;;14.65;3.42;;;;;;;14.50;71.70;101556.19;4927040;28;20155;-75
2022/11/10 12:18:12;;;;;;;14.40;2.33;;;;;;;14.45;70.89;101550.25;4937490;28;20083;-74
2022/11/10 12:21:03;;;;;;;16.98;3.83;;;;;;;14.27;70.81;101561.94;4925636;28;20048;-75
2022/11/10 12:24:01;;;;;;;14.90;3.17;;;;;;;14.07;72.03;101565.78;4949801;28;20055;-75
2022/11/10 12:26:42;;;;;;;18.27;2.78;;;;;;;14.02;72.13;101578.44;4940777;28;20051;-75
2022/11/10 12:29:25;;;;;;;16.30;2.72;;;;;;;13.96;72.27;101578.78;4926966;28;20138;-75
2022/11/10 12:32:21;;;;;;;15.88;3.00;;;;;;;13.94;72.58;101566.47;4930200;28;20130;-75
2022/11/10 12:35:02;;;;;;;13.02;3.00;;;;;;;14.00;73.03;101575.84;4949579;28;20048;-75
2022/11/10 12:37:32;;;;;;;10.00;3.08;;;;;;;14.28;72.15;101579.56;4941512;28;20091;-75
2022/11/10 12:40:12;;;;;;;13.88;2.65;;;;;;;14.50;71.79;101579.13;4923401;28;20045;-75
2022/11/10 12:42:44;;;;;;;13.95;3.33;;;;;;;14.81;70.77;101581.63;4934126;28;20135;-75
2022/11/10 12:45:41;;;;;;;9.32;2.80;;;;;;;15.49;67.43;101595.97;4922067;28;20098;-76
2022/11/10 12:48:15;;;;;;;11.43;3.20;;;;;;;15.88;65.44;101601.38;4927076;28;20152;-76
2022/11/10 12:51:18;;;;;;;13.52;3.42;;;;;;;15.59;66.10;101603.25;4927037;28;20055;-75
2022/11/10 12:53:47;;;;;;;11.68;2.75;;;;;;;15.10;67.26;101616.97;4909643;28;20103;-74
2022/11/10 12:56:25;;;;;;;14.07;2.80;;;;;;;14.69;68.21;101619.50;4927110;28;20058;-75
2022/11/10 12:59:20;;;;;;;18.90;3.38;;;;;;;14.45;68.90;101613.81;4958527;28;20467;-75
2022/11/10 13:01:54;;;;;;;10.52;2.50;;;;;;;14.35;70.18;101617.97;4927786;28;20063;-75
2022/11/10 13:04:22;;;;;;;10.32;3.08;;;;;;;14.34;70.82;101611.81;4945675;28;20105;-75
2022/11/10 13:06:54;;;;;;;9.93;3.03;;;;;;;14.30;71.01;101617.41;4945491;28;20149;-74
2022/11/10 13:09:24;;;;;;;16.15;3.30;;;;;;;14.32;71.07;101618.13;4952897;28;20097;-74
2022/11/10 13:12:20;;;;;;;15.32;2.80;;;;;;;14.40;71.11;101630.00;4974568;28;20044;-75
2022/11/10 13:14:48;;;;;;;;;;;;;;;14.41;70.75;101621.13;4941596;28;20093;-74
2022/11/10 13:17:25;;;;;;;14.38;2.30;;;;;;;14.46;69.93;101631.44;4998440;28;20017;-75
2022/11/10 13:19:53;;;;;;;11.70;2.78;;;;;;;14.73;68.93;101617.53;4922966;28;20048;-74
2022/11/10 13:22:42;;;;;;;14.20;2.90;;;;;;;14.77;68.55;101629.63;4926042;28;20066;-74
2022/11/10 13:25:37;;;;;;;9.13;2.47;;;;;;;15.03;67.00;101625.38;4926823;28;20056;-75
2022/11/10 13:28:08;;;;;;;17.27;2.60;;;;;;;15.22;66.04;101622.44;4921341;28;20054;-73
2022/11/10 13:30:45;;;;;;;12.07;2.58;;;;;;;15.47;65.23;101633.22;4920443;28;20064;-73
2022/11/10 13:33:21;;;;;;;10.45;2.33;;;;;;;15.49;65.76;101627.81;4906093;28;20753;-73
2022/11/10 13:35:54;;;;;;;20.08;3.13;;;;;;;15.50;65.42;101635.69;4919754;28;20063;-75
2022/11/10 13:38:28;;;;;;;12.55;2.83;;;;;;;15.48;64.89;101632.28;4948907;28;20049;-73
2022/11/10 13:41:24;;;;;;;10.25;2.42;;;;;;;15.65;64.64;101655.13;4924015;28;20082;-74
2022/11/10 13:43:53;;;;;;;11.05;2.05;;;;;;;15.78;63.86;101633.97;4921087;28;20044;-74
2022/11/10 13:46:36;;;;;;;13.93;2.28;;;;;;;15.57;63.83;101637.00;4934981;28;20594;-75
2022/11/10 13:49:13;;;;;;;10.32;2.65;;;;;;;15.40;64.83;101635.44;4923819;28;20714;-73
2022/11/10 13:52:14;;;;;;;15.80;2.72;;;;;;;15.24;65.69;101647.94;4922217;28;20067;-74
2022/11/10 13:55:18;;;;;;;22.45;3.35;;;;;;;15.04;66.08;101653.59;4886308;28;20051;-74
2022/11/10 13:58:10;;;;;;;12.43;2.63;;;;;;;14.88;67.14;101651.06;4919266;29;20090;-74
2022/11/10 14:00:38;;;;;;;11.30;2.53;;;;;;;14.85;67.20;101644.13;4922417;28;20563;-77
2022/11/10 14:03:20;;;;;;;15.57;2.60;;;;;;;14.97;67.07;101666.41;4939219;28;20054;-75
2022/11/10 14:05:56;;;;;;;12.15;2.55;;;;;;;15.17;66.92;101650.13;4916099;28;20048;-75
2022/11/10 14:08:29;;;;;;;14.23;3.28;;;;;;;15.32;65.74;101663.38;4919122;28;20094;-75
2022/11/10 14:11:02;;;;;;;14.93;2.70;;;;;;;15.41;65.21;101670.78;4918382;29;20102;-75
2022/11/10 14:13:59;;;;;;;9.48;2.38;;;;;;;15.55;65.21;101680.53;4919658;29;20048;-75
2022/11/10 14:16:30;;;;;;;15.70;3.17;;;;;;;15.51;64.07;101685.16;4919791;28;20058;-75
2022/11/10 14:19:04;;;;;;;14.35;2.53;;;;;;;15.53;64.85;101677.09;4914284;29;20118;-75
2022/11/10 14:21:42;;;;;;;12.65;2.40;;;;;;;15.43;64.37;101672.38;4930874;29;20048;-75
2022/11/10 14:24:23;;;;;;;11.95;1.90;;;;;;;15.42;64.46;101688.41;4937023;28;20070;-75
2022/11/10 14:36:34;;;;;;;11.40;2.17;;;;;;;14.72;67.16;101703.28;4922359;28;20039;-75
2022/11/10 14:39:04;;;;;;;11.30;2.17;;;;;;;14.72;66.83;101705.91;4945732;28;20052;-75
2022/11/10 14:41:31;;;;;;;11.88;2.33;;;;;;;14.55;66.96;101705.13;4919057;29;20048;-75
2022/11/10 14:44:55;;;;;;;11.43;2.90;;;;;;;14.46;67.95;101720.69;4918573;29;20582;-73
2022/11/10 14:47:27;;;;;;;12.70;2.50;;;;;;;14.41;67.50;101726.25;4922334;28;20047;-75
2022/11/10 14:50:07;;;;;;;12.55;2.88;;;;;;;14.33;68.25;101729.31;4904933;28;20056;-74
2022/11/10 14:52:39;;;;;;;7.88;2.08;;;;;;;14.31;67.82;101731.19;4907559;28;20125;-75
2022/11/10 14:55:24;;;;;;;12.35;2.65;;;;;;;14.24;68.46;101732.50;4910003;28;20064;-74
2022/11/10 14:58:03;;;;;;;9.98;2.05;;;;;;;14.21;68.62;101731.81;4896637;28;20606;-75
2022/11/10 15:00:35;;;;;;;10.73;2.33;;;;;;;14.25;68.57;101749.25;4915245;28;20052;-75
2022/11/10 15:03:35;;;;;;;9.27;2.28;;;;;;;14.01;68.74;101736.44;4911149;28;20059;-74
2022/11/10 15:06:07;;;;;;;7.82;2.00;;;;;;;13.92;69.21;101748.38;4928274;28;20087;-74
2022/11/10 15:08:34;;;;;;;11.85;2.25;;;;;;;13.86;69.11;101754.00;4923369;28;20063;-75
2022/11/10 15:11:02;;;;;;;11.60;2.13;;;;;;;13.85;69.11;101743.50;4945886;28;20129;-74
2022/11/10 15:13:33;;;;;;;11.23;2.65;;;;;;;13.83;69.25;101750.69;4921710;28;20090;-74
2022/11/10 15:16:26;;;;;;;6.35;2.05;;;;;;;13.66;69.68;101757.75;4918950;28;20750;-74
2022/11/10 15:18:56;;;;;;;8.63;2.28;;;;;;;13.75;69.54;101768.78;4937284;28;20113;-75
2022/11/10 16:21:20;;;;;;;10.73;3.33;;;;;;;12.87;73.38;101794.41;4921951;28;20048;-77
2022/11/10 16:24:38;;;;;;;12.25;3.70;;;;;;;12.80;73.22;101785.09;4940386;28;20102;-75
2022/11/10 16:27:06;;;;;;;;;;;;;;;12.78;73.53;101794.88;4926883;28;20128;-76
2022/11/10 16:29:34;;;;;;;14.45;3.58;;;;;;;12.79;73.41;101795.72;4920331;28;19923;-76
2022/11/10 16:41:18;;;;;;;16.92;3.65;;;;;;;12.68;73.56;101827.97;4927580;28;20047;-76
2022/11/10 16:43:45;;;;;;;14.45;3.70;;;;;;;12.67;73.58;101831.56;4955438;28;20099;-75
2022/11/10 16:46:23;;;;;;;12.90;3.28;;;;;;;12.59;73.84;101826.63;4932410;28;20059;-76
2022/11/10 16:48:56;;;;;;;20.73;3.00;;;;;;;12.55;74.12;101832.97;4926115;28;20052;-75
2022/11/10 16:51:34;;;;;;;11.35;3.28;;;;;;;12.52;74.18;101825.22;4901863;28;20544;-74
2022/11/10 16:54:02;;;;;;;16.25;3.90;;;;;;;12.55;73.91;101830.34;4898735;28;20060;-74
2022/11/10 16:56:29;;;;;;;11.93;3.90;;;;;;;12.57;74.18;101830.28;4921370;28;20577;-76
2022/11/10 16:58:57;;;;;;;14.23;3.67;;;;;;;12.53;73.97;101829.56;4922206;28;20080;-76
2022/11/10 17:01:26;;;;;;;16.98;4.00;;;;;;;12.43;74.31;101830.94;4917962;28;20064;-76
2022/11/10 17:21:29;;;;;;;16.23;3.75;;;;;;;12.16;75.69;101835.75;4922381;29;20109;-76
2022/11/10 20:10:21;;;;;;;10.07;3.38;;;;;;;11.84;77.80;101945.34;4928541;28;20125;-75
2022/11/10 21:14:18;;;;;;;17.85;4.38;;;;;;;11.67;82.40;102022.56;4927928;28;20046;-75
2022/11/10 22:49:50;;;;;;;14.32;3.00;;;;;;;10.73;85.99;102056.13;4929009;28;20034;-75
2022/11/10 23:14:38;;;;;;;10.43;3.00;;;;;;;10.54;85.67;102061.19;4933389;28;20046;-74
2022/11/10 23:25:54;;;;;;;12.82;2.83;;;;;;;10.31;86.92;102075.13;4911750;28;20055;-74
2022/11/10 23:59:45;;;;;;;9.10;2.75;;;;;;;9.89;88.98;102068.63;4926018;29;20058;-75
